sensor_id;sensor_type;location;lat;lon;timestamp;P1;durP1;ratioP1;P2;durP2;ratioP2
10509;SDS011;5303;53.266;10.410;2022-07-22T00:01:32;10.53;;;9.30;;
10509;SDS011;5303;53.266;10.410;2022-07-22T00:03:57;11.93;;;10.30;;
10509;SDS011;5303;53.266;10.410;2022-07-22T00:06:23;12.23;;;10.23;;
10509;SDS011;5303;53.266;10.410;2022-07-22T00:08:48;12.80;;;10.97;;
10509;SDS011;5303;53.266;10.410;2022-07-22T00:11:13;12.07;;;10.17;;
10509;SDS011;5303;53.266;10.410;2022-07-22T00:13:39;12.03;;;10.70;;
10509;SDS011;5303;53.266;10.410;2022-07-22T00:16:04;12.30;;;10.13;;
10509;SDS011;5303;53.266;10.410;2022-07-22T00:18:30;14.20;;;11.30;;
10509;SDS011;5303;53.266;10.410;2022-07-22T00:20:55;10.53;;;9.53;;
10509;SDS011;5303;53.266;10.410;2022-07-22T00:23:21;13.17;;;10.30;;
10509;SDS011;5303;53.266;10.410;2022-07-22T00:25:46;10.67;;;9.53;;
10509;SDS011;5303;53.266;10.410;2022-07-22T00:28:11;12.40;;;10.97;;
10509;SDS011;5303;53.266;10.410;2022-07-22T00:30:37;10.97;;;9.83;;
10509;SDS011;5303;53.266;10.410;2022-07-22T00:33:02;13.10;;;10.53;;
10509;SDS011;5303;53.266;10.410;2022-07-22T00:35:28;13.67;;;12.13;;
10509;SDS011;5303;53.266;10.410;2022-07-22T00:37:53;12.17;;;9.97;;
10509;SDS011;5303;53.266;10.410;2022-07-22T00:40:18;12.40;;;10.47;;
10509;SDS011;5303;53.266;10.410;2022-07-22T00:42:44;13.50;;;9.80;;
10509;SDS011;5303;53.266;10.410;2022-07-22T00:45:09;12.53;;;11.03;;
10509;SDS011;5303;53.266;10.410;2022-07-22T00:47:35;10.37;;;9.30;;
10509;SDS011;5303;53.266;10.410;2022-07-22T00:50:01;15.33;;;10.17;;
10509;SDS011;5303;53.266;10.410;2022-07-22T00:52:26;11.90;;;10.33;;
10509;SDS011;5303;53.266;10.410;2022-07-22T00:54:52;11.70;;;10.60;;
10509;SDS011;5303;53.266;10.410;2022-07-22T00:57:17;14.40;;;12.13;;
10509;SDS011;5303;53.266;10.410;2022-07-22T00:59:43;12.27;;;11.03;;
10509;SDS011;5303;53.266;10.410;2022-07-22T01:02:09;12.20;;;11.00;;
10509;SDS011;5303;53.266;10.410;2022-07-22T01:04:35;12.00;;;10.80;;
10509;SDS011;5303;53.266;10.410;2022-07-22T01:07:01;11.73;;;10.40;;
10509;SDS011;5303;53.266;10.410;2022-07-22T01:09:26;14.30;;;11.67;;
10509;SDS011;5303;53.266;10.410;2022-07-22T01:11:51;12.30;;;10.93;;
10509;SDS011;5303;53.266;10.410;2022-07-22T01:14:17;16.10;;;13.10;;
10509;SDS011;5303;53.266;10.410;2022-07-22T01:16:42;14.13;;;12.73;;
10509;SDS011;5303;53.266;10.410;2022-07-22T01:19:07;13.83;;;11.87;;
10509;SDS011;5303;53.266;10.410;2022-07-22T01:21:33;14.30;;;12.80;;
10509;SDS011;5303;53.266;10.410;2022-07-22T01:23:58;16.30;;;14.60;;
10509;SDS011;5303;53.266;10.410;2022-07-22T01:26:24;18.57;;;14.87;;
10509;SDS011;5303;53.266;10.410;2022-07-22T01:28:49;17.13;;;14.67;;
10509;SDS011;5303;53.266;10.410;2022-07-22T01:31:15;18.23;;;15.27;;
10509;SDS011;5303;53.266;10.410;2022-07-22T01:33:40;22.93;;;18.03;;
10509;SDS011;5303;53.266;10.410;2022-07-22T01:36:05;23.67;;;17.90;;
10509;SDS011;5303;53.266;10.410;2022-07-22T01:38:31;22.43;;;18.73;;
10509;SDS011;5303;53.266;10.410;2022-07-22T01:40:57;25.20;;;19.07;;
10509;SDS011;5303;53.266;10.410;2022-07-22T01:43:22;26.03;;;20.10;;
10509;SDS011;5303;53.266;10.410;2022-07-22T01:45:50;23.77;;;18.33;;
10509;SDS011;5303;53.266;10.410;2022-07-22T01:48:16;24.07;;;19.40;;
10509;SDS011;5303;53.266;10.410;2022-07-22T01:50:42;22.10;;;17.13;;
10509;SDS011;5303;53.266;10.410;2022-07-22T01:53:08;16.57;;;13.27;;
10509;SDS011;5303;53.266;10.410;2022-07-22T01:55:33;13.13;;;8.90;;
10509;SDS011;5303;53.266;10.410;2022-07-22T01:57:59;9.23;;;7.43;;
10509;SDS011;5303;53.266;10.410;2022-07-22T02:00:24;8.00;;;6.50;;
10509;SDS011;5303;53.266;10.410;2022-07-22T02:02:50;8.00;;;6.10;;
10509;SDS011;5303;53.266;10.410;2022-07-22T02:05:15;6.43;;;5.20;;
10509;SDS011;5303;53.266;10.410;2022-07-22T02:07:41;6.77;;;5.30;;
10509;SDS011;5303;53.266;10.410;2022-07-22T02:10:06;6.93;;;4.87;;
10509;SDS011;5303;53.266;10.410;2022-07-22T02:12:32;5.80;;;4.27;;
10509;SDS011;5303;53.266;10.410;2022-07-22T02:14:57;6.07;;;4.00;;
10509;SDS011;5303;53.266;10.410;2022-07-22T02:17:23;5.37;;;3.30;;
10509;SDS011;5303;53.266;10.410;2022-07-22T02:19:50;4.83;;;3.70;;
10509;SDS011;5303;53.266;10.410;2022-07-22T02:22:16;3.90;;;3.50;;
10509;SDS011;5303;53.266;10.410;2022-07-22T02:24:41;5.33;;;3.10;;
10509;SDS011;5303;53.266;10.410;2022-07-22T02:27:06;7.00;;;3.47;;
10509;SDS011;5303;53.266;10.410;2022-07-22T02:29:32;3.00;;;2.70;;
10509;SDS011;5303;53.266;10.410;2022-07-22T02:31:59;2.40;;;2.20;;
10509;SDS011;5303;53.266;10.410;2022-07-22T02:34:24;2.80;;;2.53;;
10509;SDS011;5303;53.266;10.410;2022-07-22T02:36:50;2.33;;;2.07;;
10509;SDS011;5303;53.266;10.410;2022-07-22T02:39:15;3.43;;;1.70;;
10509;SDS011;5303;53.266;10.410;2022-07-22T02:41:40;3.30;;;1.67;;
10509;SDS011;5303;53.266;10.410;2022-07-22T02:44:06;2.63;;;1.60;;
10509;SDS011;5303;53.266;10.410;2022-07-22T02:46:31;2.57;;;1.77;;
10509;SDS011;5303;53.266;10.410;2022-07-22T02:48:57;1.70;;;1.60;;
10509;SDS011;5303;53.266;10.410;2022-07-22T02:51:22;2.60;;;1.70;;
10509;SDS011;5303;53.266;10.410;2022-07-22T02:53:48;2.63;;;1.80;;
10509;SDS011;5303;53.266;10.410;2022-07-22T02:56:14;3.10;;;1.53;;
10509;SDS011;5303;53.266;10.410;2022-07-22T02:58:39;2.47;;;1.90;;
10509;SDS011;5303;53.266;10.410;2022-07-22T03:01:06;4.20;;;2.30;;
10509;SDS011;5303;53.266;10.410;2022-07-22T03:03:31;2.40;;;2.20;;
10509;SDS011;5303;53.266;10.410;2022-07-22T03:05:57;3.67;;;3.07;;
10509;SDS011;5303;53.266;10.410;2022-07-22T03:08:23;4.27;;;3.37;;
10509;SDS011;5303;53.266;10.410;2022-07-22T03:10:48;6.20;;;4.37;;
10509;SDS011;5303;53.266;10.410;2022-07-22T03:13:13;7.43;;;4.47;;
10509;SDS011;5303;53.266;10.410;2022-07-22T03:15:38;6.50;;;4.13;;
10509;SDS011;5303;53.266;10.410;2022-07-22T03:18:04;6.47;;;3.83;;
10509;SDS011;5303;53.266;10.410;2022-07-22T03:20:29;6.13;;;3.90;;
10509;SDS011;5303;53.266;10.410;2022-07-22T03:22:54;5.00;;;3.17;;
10509;SDS011;5303;53.266;10.410;2022-07-22T03:25:20;3.60;;;3.30;;
10509;SDS011;5303;53.266;10.410;2022-07-22T03:27:45;6.07;;;3.50;;
10509;SDS011;5303;53.266;10.410;2022-07-22T03:30:11;6.37;;;3.10;;
10509;SDS011;5303;53.266;10.410;2022-07-22T03:32:36;7.80;;;3.30;;
10509;SDS011;5303;53.266;10.410;2022-07-22T03:35:02;7.50;;;3.10;;
10509;SDS011;5303;53.266;10.410;2022-07-22T03:37:28;5.93;;;3.40;;
10509;SDS011;5303;53.266;10.410;2022-07-22T03:39:53;6.27;;;3.50;;
10509;SDS011;5303;53.266;10.410;2022-07-22T03:42:18;5.67;;;3.00;;
10509;SDS011;5303;53.266;10.410;2022-07-22T03:44:43;5.50;;;3.37;;
10509;SDS011;5303;53.266;10.410;2022-07-22T03:47:09;3.90;;;2.83;;
10509;SDS011;5303;53.266;10.410;2022-07-22T03:49:34;5.43;;;3.13;;
10509;SDS011;5303;53.266;10.410;2022-07-22T03:51:59;5.10;;;3.10;;
10509;SDS011;5303;53.266;10.410;2022-07-22T03:54:25;4.77;;;3.10;;
10509;SDS011;5303;53.266;10.410;2022-07-22T03:56:50;5.30;;;3.33;;
10509;SDS011;5303;53.266;10.410;2022-07-22T03:59:16;6.00;;;3.07;;
10509;SDS011;5303;53.266;10.410;2022-07-22T04:01:42;6.83;;;2.80;;
10509;SDS011;5303;53.266;10.410;2022-07-22T04:04:07;6.80;;;2.83;;
10509;SDS011;5303;53.266;10.410;2022-07-22T04:06:33;6.23;;;3.27;;
10509;SDS011;5303;53.266;10.410;2022-07-22T04:08:58;7.60;;;3.13;;
10509;SDS011;5303;53.266;10.410;2022-07-22T04:11:23;6.93;;;2.93;;
10509;SDS011;5303;53.266;10.410;2022-07-22T04:13:49;5.43;;;3.00;;
10509;SDS011;5303;53.266;10.410;2022-07-22T04:16:14;6.27;;;2.97;;
10509;SDS011;5303;53.266;10.410;2022-07-22T04:18:40;6.07;;;2.83;;
10509;SDS011;5303;53.266;10.410;2022-07-22T04:21:05;5.03;;;2.83;;
10509;SDS011;5303;53.266;10.410;2022-07-22T04:23:30;6.07;;;3.23;;
10509;SDS011;5303;53.266;10.410;2022-07-22T04:25:56;7.23;;;3.10;;
10509;SDS011;5303;53.266;10.410;2022-07-22T04:28:22;8.17;;;3.57;;
10509;SDS011;5303;53.266;10.410;2022-07-22T04:30:47;6.17;;;3.43;;
10509;SDS011;5303;53.266;10.410;2022-07-22T04:33:12;6.97;;;3.50;;
10509;SDS011;5303;53.266;10.410;2022-07-22T04:35:38;4.00;;;2.70;;
10509;SDS011;5303;53.266;10.410;2022-07-22T04:38:03;6.63;;;3.03;;
10509;SDS011;5303;53.266;10.410;2022-07-22T04:40:28;3.47;;;2.90;;
10509;SDS011;5303;53.266;10.410;2022-07-22T04:42:54;5.33;;;3.17;;
10509;SDS011;5303;53.266;10.410;2022-07-22T04:45:19;5.47;;;3.30;;
10509;SDS011;5303;53.266;10.410;2022-07-22T04:47:44;5.87;;;3.30;;
10509;SDS011;5303;53.266;10.410;2022-07-22T04:50:10;5.60;;;3.00;;
10509;SDS011;5303;53.266;10.410;2022-07-22T04:52:35;9.33;;;3.50;;
10509;SDS011;5303;53.266;10.410;2022-07-22T04:55:00;6.47;;;3.33;;
10509;SDS011;5303;53.266;10.410;2022-07-22T04:57:26;8.37;;;3.93;;
10509;SDS011;5303;53.266;10.410;2022-07-22T04:59:52;9.97;;;3.40;;
10509;SDS011;5303;53.266;10.410;2022-07-22T05:02:18;6.43;;;3.50;;
10509;SDS011;5303;53.266;10.410;2022-07-22T05:04:43;6.80;;;4.10;;
10509;SDS011;5303;53.266;10.410;2022-07-22T05:07:08;5.03;;;3.50;;
10509;SDS011;5303;53.266;10.410;2022-07-22T05:09:34;6.40;;;3.57;;
10509;SDS011;5303;53.266;10.410;2022-07-22T05:11:59;9.30;;;4.17;;
10509;SDS011;5303;53.266;10.410;2022-07-22T05:14:24;7.77;;;3.63;;
10509;SDS011;5303;53.266;10.410;2022-07-22T05:16:50;7.60;;;3.90;;
10509;SDS011;5303;53.266;10.410;2022-07-22T05:19:15;7.93;;;3.70;;
10509;SDS011;5303;53.266;10.410;2022-07-22T05:21:40;7.17;;;4.27;;
10509;SDS011;5303;53.266;10.410;2022-07-22T05:24:06;8.30;;;3.97;;
10509;SDS011;5303;53.266;10.410;2022-07-22T05:26:32;6.63;;;3.80;;
10509;SDS011;5303;53.266;10.410;2022-07-22T05:28:58;6.23;;;3.47;;
10509;SDS011;5303;53.266;10.410;2022-07-22T05:31:24;7.50;;;3.57;;
10509;SDS011;5303;53.266;10.410;2022-07-22T05:33:49;7.70;;;3.90;;
10509;SDS011;5303;53.266;10.410;2022-07-22T05:36:15;6.83;;;3.83;;
10509;SDS011;5303;53.266;10.410;2022-07-22T05:38:40;9.63;;;3.93;;
10509;SDS011;5303;53.266;10.410;2022-07-22T05:41:05;9.10;;;4.20;;
10509;SDS011;5303;53.266;10.410;2022-07-22T05:43:31;5.97;;;3.57;;
10509;SDS011;5303;53.266;10.410;2022-07-22T05:45:56;7.93;;;3.60;;
10509;SDS011;5303;53.266;10.410;2022-07-22T05:48:21;9.90;;;3.00;;
10509;SDS011;5303;53.266;10.410;2022-07-22T05:50:47;7.17;;;3.47;;
10509;SDS011;5303;53.266;10.410;2022-07-22T05:53:12;5.60;;;3.13;;
10509;SDS011;5303;53.266;10.410;2022-07-22T05:55:38;4.67;;;3.10;;
10509;SDS011;5303;53.266;10.410;2022-07-22T05:58:03;7.17;;;3.30;;
10509;SDS011;5303;53.266;10.410;2022-07-22T06:00:28;8.20;;;3.60;;
10509;SDS011;5303;53.266;10.410;2022-07-22T06:02:54;8.60;;;3.70;;
10509;SDS011;5303;53.266;10.410;2022-07-22T06:05:19;6.57;;;3.10;;
10509;SDS011;5303;53.266;10.410;2022-07-22T06:07:45;9.10;;;3.10;;
10509;SDS011;5303;53.266;10.410;2022-07-22T06:10:10;7.80;;;3.20;;
10509;SDS011;5303;53.266;10.410;2022-07-22T06:12:36;5.37;;;3.00;;
10509;SDS011;5303;53.266;10.410;2022-07-22T06:15:01;7.53;;;2.87;;
10509;SDS011;5303;53.266;10.410;2022-07-22T06:17:27;5.33;;;2.93;;
10509;SDS011;5303;53.266;10.410;2022-07-22T06:19:52;6.87;;;2.73;;
10509;SDS011;5303;53.266;10.410;2022-07-22T06:22:18;5.53;;;2.70;;
10509;SDS011;5303;53.266;10.410;2022-07-22T06:24:43;5.00;;;2.40;;
10509;SDS011;5303;53.266;10.410;2022-07-22T06:27:09;6.37;;;2.60;;
10509;SDS011;5303;53.266;10.410;2022-07-22T06:29:35;5.43;;;2.57;;
10509;SDS011;5303;53.266;10.410;2022-07-22T06:32:01;4.77;;;2.53;;
10509;SDS011;5303;53.266;10.410;2022-07-22T06:34:26;5.17;;;2.93;;
10509;SDS011;5303;53.266;10.410;2022-07-22T06:36:51;7.10;;;2.60;;
10509;SDS011;5303;53.266;10.410;2022-07-22T06:39:17;4.27;;;2.40;;
10509;SDS011;5303;53.266;10.410;2022-07-22T06:41:42;4.97;;;2.73;;
10509;SDS011;5303;53.266;10.410;2022-07-22T06:44:07;6.33;;;2.93;;
10509;SDS011;5303;53.266;10.410;2022-07-22T06:46:33;6.20;;;3.00;;
10509;SDS011;5303;53.266;10.410;2022-07-22T06:48:58;6.17;;;2.80;;
10509;SDS011;5303;53.266;10.410;2022-07-22T06:51:23;7.57;;;2.90;;
10509;SDS011;5303;53.266;10.410;2022-07-22T06:53:49;8.47;;;2.80;;
10509;SDS011;5303;53.266;10.410;2022-07-22T06:56:14;5.73;;;2.70;;
10509;SDS011;5303;53.266;10.410;2022-07-22T06:58:40;9.23;;;3.00;;
10509;SDS011;5303;53.266;10.410;2022-07-22T07:01:05;7.63;;;2.93;;
10509;SDS011;5303;53.266;10.410;2022-07-22T07:03:30;9.40;;;2.90;;
10509;SDS011;5303;53.266;10.410;2022-07-22T07:05:56;7.67;;;2.57;;
10509;SDS011;5303;53.266;10.410;2022-07-22T07:08:21;10.13;;;3.00;;
10509;SDS011;5303;53.266;10.410;2022-07-22T07:10:47;8.30;;;2.90;;
10509;SDS011;5303;53.266;10.410;2022-07-22T07:13:13;6.00;;;2.70;;
10509;SDS011;5303;53.266;10.410;2022-07-22T07:15:38;10.97;;;3.40;;
10509;SDS011;5303;53.266;10.410;2022-07-22T07:18:03;10.27;;;3.20;;
10509;SDS011;5303;53.266;10.410;2022-07-22T07:20:29;7.37;;;2.87;;
10509;SDS011;5303;53.266;10.410;2022-07-22T07:22:54;6.83;;;2.90;;
10509;SDS011;5303;53.266;10.410;2022-07-22T07:25:20;8.13;;;3.17;;
10509;SDS011;5303;53.266;10.410;2022-07-22T07:27:45;8.47;;;3.50;;
10509;SDS011;5303;53.266;10.410;2022-07-22T07:30:11;7.70;;;2.87;;
10509;SDS011;5303;53.266;10.410;2022-07-22T07:32:37;10.00;;;3.07;;
10509;SDS011;5303;53.266;10.410;2022-07-22T07:35:03;6.37;;;2.87;;
10509;SDS011;5303;53.266;10.410;2022-07-22T07:37:29;7.73;;;2.90;;
10509;SDS011;5303;53.266;10.410;2022-07-22T07:39:55;11.23;;;3.50;;
10509;SDS011;5303;53.266;10.410;2022-07-22T07:42:20;10.80;;;3.70;;
10509;SDS011;5303;53.266;10.410;2022-07-22T07:44:46;6.27;;;2.80;;
10509;SDS011;5303;53.266;10.410;2022-07-22T07:47:11;10.27;;;3.30;;
10509;SDS011;5303;53.266;10.410;2022-07-22T07:49:40;12.63;;;3.67;;
10509;SDS011;5303;53.266;10.410;2022-07-22T07:52:06;11.87;;;3.43;;
10509;SDS011;5303;53.266;10.410;2022-07-22T07:54:31;9.47;;;3.43;;
10509;SDS011;5303;53.266;10.410;2022-07-22T07:56:56;6.40;;;2.90;;
10509;SDS011;5303;53.266;10.410;2022-07-22T07:59:22;14.60;;;3.50;;
10509;SDS011;5303;53.266;10.410;2022-07-22T08:01:47;8.80;;;3.47;;
10509;SDS011;5303;53.266;10.410;2022-07-22T08:04:12;7.87;;;3.10;;
10509;SDS011;5303;53.266;10.410;2022-07-22T08:06:37;10.43;;;2.83;;
10509;SDS011;5303;53.266;10.410;2022-07-22T08:09:03;8.40;;;2.93;;
10509;SDS011;5303;53.266;10.410;2022-07-22T08:11:29;10.10;;;3.40;;
10509;SDS011;5303;53.266;10.410;2022-07-22T08:13:54;4.53;;;2.83;;
10509;SDS011;5303;53.266;10.410;2022-07-22T08:16:19;9.30;;;2.70;;
10509;SDS011;5303;53.266;10.410;2022-07-22T08:18:45;8.13;;;2.87;;
10509;SDS011;5303;53.266;10.410;2022-07-22T08:21:10;8.10;;;2.90;;
10509;SDS011;5303;53.266;10.410;2022-07-22T08:23:36;10.07;;;2.90;;
10509;SDS011;5303;53.266;10.410;2022-07-22T08:26:01;7.70;;;3.17;;
10509;SDS011;5303;53.266;10.410;2022-07-22T08:28:26;9.87;;;3.60;;
10509;SDS011;5303;53.266;10.410;2022-07-22T08:30:52;7.73;;;2.70;;
10509;SDS011;5303;53.266;10.410;2022-07-22T08:33:17;9.90;;;3.27;;
10509;SDS011;5303;53.266;10.410;2022-07-22T08:35:43;5.77;;;2.73;;
10509;SDS011;5303;53.266;10.410;2022-07-22T08:38:08;8.00;;;3.00;;
10509;SDS011;5303;53.266;10.410;2022-07-22T08:40:34;7.17;;;3.00;;
10509;SDS011;5303;53.266;10.410;2022-07-22T08:42:59;9.73;;;3.10;;
10509;SDS011;5303;53.266;10.410;2022-07-22T08:45:28;10.37;;;3.30;;
10509;SDS011;5303;53.266;10.410;2022-07-22T08:47:56;8.33;;;3.47;;
10509;SDS011;5303;53.266;10.410;2022-07-22T08:50:24;8.90;;;2.90;;
10509;SDS011;5303;53.266;10.410;2022-07-22T08:52:49;9.40;;;2.97;;
10509;SDS011;5303;53.266;10.410;2022-07-22T08:55:15;5.93;;;2.70;;
10509;SDS011;5303;53.266;10.410;2022-07-22T08:57:44;11.87;;;3.67;;
10509;SDS011;5303;53.266;10.410;2022-07-22T09:00:17;12.83;;;3.50;;
10509;SDS011;5303;53.266;10.410;2022-07-22T09:02:45;12.03;;;2.90;;
10509;SDS011;5303;53.266;10.410;2022-07-22T09:05:11;11.23;;;3.57;;
10509;SDS011;5303;53.266;10.410;2022-07-22T09:07:41;7.17;;;3.10;;
10509;SDS011;5303;53.266;10.410;2022-07-22T09:10:11;8.00;;;3.40;;
10509;SDS011;5303;53.266;10.410;2022-07-22T09:15:27;8.57;;;2.77;;
10509;SDS011;5303;53.266;10.410;2022-07-22T09:17:54;6.63;;;3.00;;
10509;SDS011;5303;53.266;10.410;2022-07-22T09:20:20;11.53;;;3.50;;
10509;SDS011;5303;53.266;10.410;2022-07-22T09:22:46;11.37;;;3.60;;
10509;SDS011;5303;53.266;10.410;2022-07-22T09:25:20;8.53;;;2.60;;
10509;SDS011;5303;53.266;10.410;2022-07-22T09:27:46;10.37;;;3.13;;
10509;SDS011;5303;53.266;10.410;2022-07-22T09:30:16;8.63;;;3.03;;
10509;SDS011;5303;53.266;10.410;2022-07-22T09:32:43;7.93;;;2.60;;
10509;SDS011;5303;53.266;10.410;2022-07-22T09:35:09;6.30;;;2.87;;
10509;SDS011;5303;53.266;10.410;2022-07-22T09:37:50;12.00;;;3.53;;
10509;SDS011;5303;53.266;10.410;2022-07-22T09:40:20;9.17;;;3.10;;
10509;SDS011;5303;53.266;10.410;2022-07-22T09:42:49;7.37;;;3.53;;
10509;SDS011;5303;53.266;10.410;2022-07-22T09:45:19;10.43;;;2.83;;
10509;SDS011;5303;53.266;10.410;2022-07-22T09:47:47;6.53;;;2.60;;
10509;SDS011;5303;53.266;10.410;2022-07-22T09:50:14;8.20;;;2.83;;
10509;SDS011;5303;53.266;10.410;2022-07-22T09:52:50;6.30;;;2.73;;
10509;SDS011;5303;53.266;10.410;2022-07-22T09:55:18;8.37;;;2.90;;
10509;SDS011;5303;53.266;10.410;2022-07-22T09:57:45;5.37;;;2.90;;
10509;SDS011;5303;53.266;10.410;2022-07-22T10:00:11;8.77;;;2.80;;
10509;SDS011;5303;53.266;10.410;2022-07-22T10:02:40;7.20;;;2.77;;
10509;SDS011;5303;53.266;10.410;2022-07-22T10:05:20;8.17;;;2.73;;
10509;SDS011;5303;53.266;10.410;2022-07-22T10:07:47;7.40;;;2.80;;
10509;SDS011;5303;53.266;10.410;2022-07-22T10:10:15;7.70;;;3.20;;
10509;SDS011;5303;53.266;10.410;2022-07-22T10:12:42;5.40;;;2.57;;
10509;SDS011;5303;53.266;10.410;2022-07-22T10:15:09;6.93;;;2.50;;
10509;SDS011;5303;53.266;10.410;2022-07-22T10:17:36;6.70;;;2.87;;
10509;SDS011;5303;53.266;10.410;2022-07-22T10:20:04;6.07;;;3.07;;
10509;SDS011;5303;53.266;10.410;2022-07-22T10:25:05;6.57;;;2.87;;
10509;SDS011;5303;53.266;10.410;2022-07-22T10:30:15;7.70;;;3.20;;
10509;SDS011;5303;53.266;10.410;2022-07-22T10:32:42;8.70;;;2.50;;
10509;SDS011;5303;53.266;10.410;2022-07-22T10:45:32;6.50;;;2.80;;
10509;SDS011;5303;53.266;10.410;2022-07-22T10:48:04;9.73;;;2.80;;
10509;SDS011;5303;53.266;10.410;2022-07-22T10:53:02;8.53;;;2.50;;
10509;SDS011;5303;53.266;10.410;2022-07-22T10:55:29;5.93;;;2.27;;
10509;SDS011;5303;53.266;10.410;2022-07-22T10:57:54;8.60;;;2.80;;
10509;SDS011;5303;53.266;10.410;2022-07-22T11:00:20;6.03;;;2.37;;
10509;SDS011;5303;53.266;10.410;2022-07-22T11:02:45;9.40;;;3.00;;
10509;SDS011;5303;53.266;10.410;2022-07-22T11:05:10;5.83;;;2.50;;
10509;SDS011;5303;53.266;10.410;2022-07-22T11:07:42;4.63;;;2.60;;
10509;SDS011;5303;53.266;10.410;2022-07-22T11:10:10;6.77;;;2.87;;
10509;SDS011;5303;53.266;10.410;2022-07-22T11:12:43;7.60;;;2.40;;
10509;SDS011;5303;53.266;10.410;2022-07-22T11:15:08;5.53;;;2.10;;
10509;SDS011;5303;53.266;10.410;2022-07-22T11:17:35;12.80;;;2.90;;
10509;SDS011;5303;53.266;10.410;2022-07-22T11:20:05;7.40;;;2.50;;
10509;SDS011;5303;53.266;10.410;2022-07-22T11:22:34;7.23;;;2.53;;
10509;SDS011;5303;53.266;10.410;2022-07-22T11:25:01;7.03;;;2.60;;
10509;SDS011;5303;53.266;10.410;2022-07-22T11:27:31;7.63;;;2.70;;
10509;SDS011;5303;53.266;10.410;2022-07-22T11:29:57;7.23;;;2.40;;
10509;SDS011;5303;53.266;10.410;2022-07-22T11:32:23;7.67;;;2.80;;
10509;SDS011;5303;53.266;10.410;2022-07-22T11:34:50;6.80;;;2.43;;
10509;SDS011;5303;53.266;10.410;2022-07-22T11:37:18;5.67;;;2.60;;
10509;SDS011;5303;53.266;10.410;2022-07-22T11:39:47;7.10;;;2.73;;
10509;SDS011;5303;53.266;10.410;2022-07-22T11:42:13;5.80;;;2.70;;
10509;SDS011;5303;53.266;10.410;2022-07-22T11:44:39;7.33;;;3.20;;
10509;SDS011;5303;53.266;10.410;2022-07-22T11:47:05;5.90;;;2.97;;
10509;SDS011;5303;53.266;10.410;2022-07-22T11:49:33;7.77;;;2.93;;
10509;SDS011;5303;53.266;10.410;2022-07-22T11:52:00;4.53;;;2.30;;
10509;SDS011;5303;53.266;10.410;2022-07-22T11:54:27;6.23;;;2.60;;
10509;SDS011;5303;53.266;10.410;2022-07-22T11:56:53;4.60;;;2.30;;
10509;SDS011;5303;53.266;10.410;2022-07-22T11:59:19;4.90;;;2.37;;
10509;SDS011;5303;53.266;10.410;2022-07-22T12:01:45;6.53;;;2.80;;
10509;SDS011;5303;53.266;10.410;2022-07-22T12:04:13;6.83;;;2.33;;
10509;SDS011;5303;53.266;10.410;2022-07-22T12:06:41;3.70;;;2.40;;
10509;SDS011;5303;53.266;10.410;2022-07-22T12:11:35;5.50;;;2.47;;
10509;SDS011;5303;53.266;10.410;2022-07-22T12:14:05;5.47;;;2.47;;
10509;SDS011;5303;53.266;10.410;2022-07-22T12:16:35;4.47;;;2.37;;
10509;SDS011;5303;53.266;10.410;2022-07-22T12:19:06;4.30;;;2.40;;
10509;SDS011;5303;53.266;10.410;2022-07-22T12:21:48;4.53;;;2.20;;
10509;SDS011;5303;53.266;10.410;2022-07-22T12:24:25;7.37;;;2.47;;
10509;SDS011;5303;53.266;10.410;2022-07-22T12:26:51;5.77;;;2.50;;
10509;SDS011;5303;53.266;10.410;2022-07-22T12:29:23;4.90;;;2.17;;
10509;SDS011;5303;53.266;10.410;2022-07-22T12:31:56;7.00;;;2.57;;
10509;SDS011;5303;53.266;10.410;2022-07-22T12:34:28;5.80;;;2.50;;
10509;SDS011;5303;53.266;10.410;2022-07-22T12:36:58;6.20;;;2.40;;
10509;SDS011;5303;53.266;10.410;2022-07-22T12:39:27;4.53;;;2.20;;
10509;SDS011;5303;53.266;10.410;2022-07-22T12:41:53;5.90;;;2.10;;
10509;SDS011;5303;53.266;10.410;2022-07-22T12:44:20;6.33;;;2.70;;
10509;SDS011;5303;53.266;10.410;2022-07-22T12:46:54;5.07;;;2.70;;
10509;SDS011;5303;53.266;10.410;2022-07-22T12:49:24;7.80;;;2.30;;
10509;SDS011;5303;53.266;10.410;2022-07-22T12:54:36;5.70;;;2.53;;
10509;SDS011;5303;53.266;10.410;2022-07-22T12:57:03;6.10;;;2.10;;
10509;SDS011;5303;53.266;10.410;2022-07-22T12:59:29;7.50;;;2.63;;
10509;SDS011;5303;53.266;10.410;2022-07-22T13:01:54;3.20;;;2.30;;
10509;SDS011;5303;53.266;10.410;2022-07-22T13:04:19;3.93;;;2.03;;
10509;SDS011;5303;53.266;10.410;2022-07-22T13:06:44;5.07;;;2.20;;
10509;SDS011;5303;53.266;10.410;2022-07-22T13:09:10;3.20;;;2.10;;
10509;SDS011;5303;53.266;10.410;2022-07-22T13:11:35;5.43;;;2.20;;
10509;SDS011;5303;53.266;10.410;2022-07-22T13:14:04;6.40;;;2.77;;
10509;SDS011;5303;53.266;10.410;2022-07-22T13:16:30;5.60;;;2.27;;
10509;SDS011;5303;53.266;10.410;2022-07-22T13:18:55;4.43;;;2.30;;
10509;SDS011;5303;53.266;10.410;2022-07-22T13:21:21;4.70;;;2.10;;
10509;SDS011;5303;53.266;10.410;2022-07-22T13:23:46;3.97;;;2.20;;
10509;SDS011;5303;53.266;10.410;2022-07-22T13:26:11;4.53;;;2.20;;
10509;SDS011;5303;53.266;10.410;2022-07-22T13:28:37;4.20;;;2.00;;
10509;SDS011;5303;53.266;10.410;2022-07-22T13:31:02;5.33;;;2.57;;
10509;SDS011;5303;53.266;10.410;2022-07-22T13:33:27;4.40;;;2.43;;
10509;SDS011;5303;53.266;10.410;2022-07-22T13:35:52;4.83;;;2.50;;
10509;SDS011;5303;53.266;10.410;2022-07-22T13:38:18;4.53;;;2.00;;
10509;SDS011;5303;53.266;10.410;2022-07-22T13:40:44;5.03;;;1.93;;
10509;SDS011;5303;53.266;10.410;2022-07-22T13:43:17;5.07;;;2.13;;
10509;SDS011;5303;53.266;10.410;2022-07-22T13:45:43;4.40;;;2.00;;
10509;SDS011;5303;53.266;10.410;2022-07-22T13:48:08;3.90;;;2.00;;
10509;SDS011;5303;53.266;10.410;2022-07-22T13:50:34;4.37;;;2.20;;
10509;SDS011;5303;53.266;10.410;2022-07-22T13:52:59;4.23;;;2.20;;
10509;SDS011;5303;53.266;10.410;2022-07-22T13:55:24;5.50;;;2.40;;
10509;SDS011;5303;53.266;10.410;2022-07-22T13:57:51;5.23;;;2.20;;
10509;SDS011;5303;53.266;10.410;2022-07-22T14:00:16;3.90;;;2.30;;
10509;SDS011;5303;53.266;10.410;2022-07-22T14:02:43;3.03;;;2.13;;
10509;SDS011;5303;53.266;10.410;2022-07-22T14:05:09;2.57;;;1.97;;
10509;SDS011;5303;53.266;10.410;2022-07-22T14:07:34;4.83;;;2.20;;
10509;SDS011;5303;53.266;10.410;2022-07-22T14:10:00;4.67;;;2.43;;
10509;SDS011;5303;53.266;10.410;2022-07-22T14:12:25;6.47;;;2.23;;
10509;SDS011;5303;53.266;10.410;2022-07-22T14:14:50;2.83;;;2.17;;
10509;SDS011;5303;53.266;10.410;2022-07-22T14:17:16;7.63;;;2.38;;
10509;SDS011;5303;53.266;10.410;2022-07-22T14:19:41;4.60;;;2.10;;
10509;SDS011;5303;53.266;10.410;2022-07-22T14:22:06;3.60;;;2.00;;
10509;SDS011;5303;53.266;10.410;2022-07-22T14:24:31;4.37;;;2.30;;
10509;SDS011;5303;53.266;10.410;2022-07-22T14:26:57;6.33;;;2.07;;
10509;SDS011;5303;53.266;10.410;2022-07-22T14:29:22;5.37;;;2.33;;
10509;SDS011;5303;53.266;10.410;2022-07-22T14:31:47;5.23;;;2.40;;
10509;SDS011;5303;53.266;10.410;2022-07-22T14:34:13;6.07;;;2.13;;
10509;SDS011;5303;53.266;10.410;2022-07-22T14:36:38;3.87;;;2.03;;
10509;SDS011;5303;53.266;10.410;2022-07-22T14:39:04;3.97;;;1.90;;
10509;SDS011;5303;53.266;10.410;2022-07-22T14:41:29;7.20;;;2.40;;
10509;SDS011;5303;53.266;10.410;2022-07-22T14:43:54;5.93;;;2.07;;
10509;SDS011;5303;53.266;10.410;2022-07-22T14:46:20;6.37;;;2.43;;
10509;SDS011;5303;53.266;10.410;2022-07-22T14:48:45;3.87;;;2.10;;
10509;SDS011;5303;53.266;10.410;2022-07-22T14:51:11;4.03;;;2.20;;
10509;SDS011;5303;53.266;10.410;2022-07-22T14:53:36;4.68;;;1.95;;
10509;SDS011;5303;53.266;10.410;2022-07-22T14:56:02;5.57;;;1.90;;
10509;SDS011;5303;53.266;10.410;2022-07-22T14:58:27;4.50;;;2.28;;
10509;SDS011;5303;53.266;10.410;2022-07-22T15:00:52;2.45;;;1.90;;
10509;SDS011;5303;53.266;10.410;2022-07-22T15:03:18;3.55;;;2.13;;